Twentynine Palms (Self) Airport
KNXP : now visible

Airfield :











YOU CAN JOIN US ON...

 
LOGIN :

Register | Disclaimer

   EN    FR    IT 

 









Legend :    VFR   Marginal VFR   IFR   Intensive IFR   Very Intensive IFR
Visi :
Ceiling :
>= 8 km
>= 3000ft
5 to 8 km
1000 to 3000 ft
1500m to 5 km
500 to 1000 ft
800 to 1500m
200 to 500 ft
< 800m
< 200 ft
Symbols :   Thunderstorms  Fog  Heavy snow  Heavy precipitations  Wind > 20 kt







- Airport Elevation : 2051 ft


KNXP - Twentynine Palms (Self)

CURRENT METAR :
  • 231856Z 14007KT 10SM CLR 34/12 A2994 RMK AO2 SLP098 T03440117

EXPIRED METARs :
  • 231756Z 13009KT 10SM CLR 32/11 A2995 RMK AO2 SLP103 T03220111 10322 20200 50007
  • 231656Z AUTO 09004KT 10SM CLR 30/10 A2996 RMK AO2 SLP105 T03000100

TAF TAF KNXP
Valid from the 23 at 15:00 until the 24 at 15:00 UTC


2315/2415 VRB05KT 9999 SKC QNH2985INS
FM232100 21012G22KT 9999 SKC QNH2979INS T37/2322Z T23/2413Z
No reported NOTAMs for that airfield.



MET'MAP, your aeronautical weather chart ! - Copyright ORBIFLY December 2007 - Disclaimer

ORBIFLY MET'MAP TEAM :

Programming & Development : Alexandra Zaïnal
Concept & Development : Baudouin d'Aumeries
Co-Development & Prog : Marc-Olivier Méhu
Technical & hardware support : Manuel Goepfert

Contact : metmap@orbifly.com




SOURCES & CREDITS :

   NOAA       Earth
Advisory